createdAt,value
2022-08-12T00:00:54.343Z,13
2022-08-12T00:02:06.227Z,12
2022-08-12T00:03:08.018Z,11
2022-08-12T00:04:10.103Z,11
2022-08-12T00:05:11.390Z,11
2022-08-12T00:06:12.954Z,11
2022-08-12T00:07:14.725Z,10
2022-08-12T00:08:16.539Z,10
2022-08-12T00:09:38.735Z,8
2022-08-12T00:10:40.040Z,8
2022-08-12T00:11:41.868Z,9
2022-08-12T00:12:43.422Z,9
2022-08-12T00:13:45.250Z,9
2022-08-12T00:14:46.512Z,9
2022-08-12T00:15:51.220Z,9
2022-08-12T00:16:53.321Z,9
2022-08-12T00:17:54.424Z,9
2022-08-12T00:18:56.150Z,9
2022-08-12T00:19:57.657Z,9
2022-08-12T00:20:59.001Z,9
2022-08-12T00:22:00.005Z,8
2022-08-12T00:23:01.260Z,8
2022-08-12T00:24:03.345Z,8
2022-08-12T00:25:05.189Z,9
2022-08-12T00:26:25.196Z,9
2022-08-12T00:27:44.790Z,9
2022-08-12T00:28:46.052Z,9
2022-08-12T00:29:48.567Z,9
2022-08-12T00:30:50.387Z,11
2022-08-12T00:31:52.197Z,11
2022-08-12T00:32:57.808Z,10
2022-08-12T00:34:05.846Z,10
2022-08-12T00:35:09.648Z,9
2022-08-12T00:36:36.931Z,9
2022-08-12T00:37:44.766Z,10
2022-08-12T00:38:46.565Z,9
2022-08-12T00:39:51.087Z,9
2022-08-12T00:40:52.291Z,9
2022-08-12T00:41:53.837Z,9
2022-08-12T00:42:55.099Z,9
2022-08-12T00:43:56.701Z,9
2022-08-12T00:45:01.902Z,8
2022-08-12T00:46:03.168Z,8
2022-08-12T00:47:05.810Z,8
2022-08-12T00:48:27.208Z,8
2022-08-12T00:49:28.491Z,9
2022-08-12T00:50:30.545Z,10
2022-08-12T00:51:33.249Z,10
2022-08-12T00:52:36.430Z,11
2022-08-12T00:53:38.024Z,15
2022-08-12T00:54:39.787Z,17
2022-08-12T00:55:41.626Z,20
2022-08-12T00:56:42.895Z,20
2022-08-12T00:57:43.883Z,16
2022-08-12T00:58:45.076Z,15
2022-08-12T00:59:46.314Z,14
2022-08-12T01:00:47.593Z,13
2022-08-12T01:02:13.114Z,13
2022-08-12T01:03:15.180Z,11
2022-08-12T01:04:17.332Z,10
2022-08-12T01:05:19.122Z,10
2022-08-12T01:06:21.186Z,10
2022-08-12T01:07:22.471Z,10
2022-08-12T01:08:24.296Z,10
2022-08-12T01:09:25.369Z,10
2022-08-12T01:10:33.722Z,11
2022-08-12T01:11:35.220Z,10
2022-08-12T01:12:37.089Z,10
2022-08-12T01:13:38.811Z,10
2022-08-12T01:14:40.614Z,10
2022-08-12T01:15:42.679Z,10
2022-08-12T01:16:44.840Z,10
2022-08-12T01:17:46.663Z,10
2022-08-12T01:18:48.516Z,9
2022-08-12T01:19:49.807Z,9
2022-08-12T01:20:50.798Z,9
2022-08-12T01:21:51.789Z,10
2022-08-12T01:22:53.082Z,9
2022-08-12T01:23:54.095Z,9
2022-08-12T01:24:55.345Z,9
2022-08-12T01:25:57.305Z,10
2022-08-12T01:26:59.099Z,11
2022-08-12T01:28:00.648Z,10
2022-08-12T01:29:02.437Z,10
2022-08-12T01:30:05.241Z,10
2022-08-12T01:31:06.525Z,10
2022-08-12T01:32:07.827Z,11
2022-08-12T01:33:10.189Z,10
2022-08-12T01:34:38.047Z,10
2022-08-12T01:35:40.652Z,10
2022-08-12T01:36:42.457Z,10
2022-08-12T01:37:43.718Z,10
2022-08-12T01:38:44.710Z,11
2022-08-12T01:40:39.766Z,11
2022-08-12T01:41:54.161Z,10
2022-08-12T01:42:55.131Z,10
2022-08-12T01:43:56.635Z,10
2022-08-12T01:44:58.720Z,10
2022-08-12T01:46:00.592Z,10
2022-08-12T01:47:02.652Z,11
2022-08-12T01:48:05.880Z,11
2022-08-12T01:49:07.155Z,11
2022-08-12T01:50:08.745Z,11
2022-08-12T01:51:10.915Z,10
2022-08-12T01:53:20.896Z,10
2022-08-12T01:54:21.891Z,10
2022-08-12T01:55:22.875Z,10
2022-08-12T01:56:23.889Z,10
2022-08-12T01:58:01.590Z,10
2022-08-12T01:59:03.241Z,11
2022-08-12T02:00:04.219Z,11
2022-08-12T02:01:05.573Z,10
2022-08-12T02:02:07.955Z,10
2022-08-12T02:03:10.067Z,10
2022-08-12T02:04:12.149Z,10
2022-08-12T02:05:13.158Z,9
2022-08-12T02:06:14.711Z,9
2022-08-12T02:07:15.707Z,10
2022-08-12T02:08:17.275Z,9
2022-08-12T02:09:19.085Z,9
2022-08-12T02:10:52.475Z,10
2022-08-12T02:11:58.991Z,9
2022-08-12T02:13:09.612Z,9
2022-08-12T02:14:11.393Z,9
2022-08-12T02:15:12.648Z,9
2022-08-12T02:16:14.523Z,8
2022-08-12T02:17:15.557Z,9
2022-08-12T02:18:56.633Z,10
2022-08-12T02:19:57.907Z,9
2022-08-12T02:20:59.447Z,9
2022-08-12T02:22:05.166Z,7
2022-08-12T02:23:07.298Z,8
2022-08-12T02:24:08.866Z,9
2022-08-12T02:25:10.641Z,10
2022-08-12T02:26:12.184Z,11
2022-08-12T02:27:14.312Z,11
2022-08-12T02:28:15.813Z,12
2022-08-12T02:29:18.395Z,12
2022-08-12T02:30:19.402Z,12
2022-08-12T02:31:20.372Z,13
2022-08-12T02:32:21.933Z,12
2022-08-12T02:33:23.176Z,12
2022-08-12T02:34:24.962Z,11
2022-08-12T02:35:25.959Z,10
2022-08-12T02:36:32.982Z,11
2022-08-12T02:37:34.832Z,11
2022-08-12T02:38:35.821Z,12
2022-08-12T02:39:37.421Z,13
2022-08-12T02:40:39.130Z,12
2022-08-12T02:41:40.131Z,12
2022-08-12T02:42:41.434Z,12
2022-08-12T02:43:43.628Z,11
2022-08-12T02:44:45.336Z,11
2022-08-12T02:45:46.602Z,10
2022-08-12T02:46:48.134Z,11
2022-08-12T02:48:01.661Z,11
2022-08-12T02:49:03.424Z,12
2022-08-12T02:50:05.252Z,11
2022-08-12T02:51:07.033Z,10
2022-08-12T02:52:09.086Z,9
2022-08-12T02:53:10.348Z,10
2022-08-12T02:54:11.352Z,10
2022-08-12T02:55:35.360Z,11
2022-08-12T02:56:36.918Z,11
2022-08-12T02:57:39.181Z,10
2022-08-12T02:58:45.775Z,10
2022-08-12T02:59:48.193Z,10
2022-08-12T03:00:49.379Z,11
2022-08-12T03:01:51.243Z,11
2022-08-12T03:02:52.249Z,11
2022-08-12T03:03:53.479Z,11
2022-08-12T03:04:54.468Z,12
2022-08-12T03:05:56.922Z,12
2022-08-12T03:06:58.784Z,12
2022-08-12T03:08:01.070Z,12
2022-08-12T03:09:09.804Z,10
2022-08-12T03:10:37.982Z,11
2022-08-12T03:11:50.849Z,11
2022-08-12T03:12:57.543Z,11
2022-08-12T03:13:58.834Z,11
2022-08-12T03:14:59.821Z,12
2022-08-12T03:16:00.910Z,12
2022-08-12T03:17:02.200Z,12
2022-08-12T03:18:29.525Z,12
2022-08-12T03:19:30.525Z,11
2022-08-12T03:20:32.113Z,11
2022-08-12T03:22:10.169Z,11
2022-08-12T03:23:31.184Z,11
2022-08-12T03:24:35.442Z,12
2022-08-12T03:25:39.664Z,13
2022-08-12T03:26:40.681Z,14
2022-08-12T03:27:42.517Z,14
2022-08-12T03:28:44.661Z,14
2022-08-12T03:29:52.489Z,13
2022-08-12T03:30:57.906Z,12
2022-08-12T03:32:00.476Z,13
2022-08-12T03:33:02.218Z,13
2022-08-12T03:34:04.390Z,14
2022-08-12T03:35:06.462Z,13
2022-08-12T03:36:08.680Z,13
2022-08-12T03:37:24.496Z,13
2022-08-12T03:38:26.027Z,13
2022-08-12T03:39:37.659Z,15
2022-08-12T03:40:38.820Z,13
2022-08-12T03:41:41.428Z,13
2022-08-12T03:42:43.360Z,13
2022-08-12T03:43:49.733Z,12
2022-08-12T03:44:50.993Z,12
2022-08-12T03:45:57.025Z,11
2022-08-12T03:47:03.438Z,13
2022-08-12T03:48:04.950Z,13
2022-08-12T03:49:07.082Z,13
2022-08-12T03:50:08.624Z,13
2022-08-12T03:51:09.856Z,14
2022-08-12T03:52:14.079Z,14
2022-08-12T03:53:16.418Z,15
2022-08-12T03:54:17.484Z,16
2022-08-12T03:55:22.713Z,14
2022-08-12T03:56:24.256Z,13
2022-08-12T03:57:26.044Z,13
2022-08-12T03:58:27.307Z,13
2022-08-12T03:59:28.651Z,13
2022-08-12T04:00:30.422Z,13
2022-08-12T04:01:41.797Z,13
2022-08-12T04:02:45.804Z,12
2022-08-12T04:03:47.638Z,11
2022-08-12T04:04:50.182Z,11
2022-08-12T04:05:57.219Z,12
2022-08-12T04:06:58.562Z,11
2022-08-12T04:07:59.573Z,12
2022-08-12T04:09:01.690Z,12
2022-08-12T04:10:03.258Z,12
2022-08-12T04:11:04.522Z,13
2022-08-12T04:12:09.250Z,12
2022-08-12T04:13:11.463Z,13
2022-08-12T04:14:13.006Z,13
2022-08-12T04:15:15.650Z,14
2022-08-12T04:16:18.240Z,14
2022-08-12T04:17:19.750Z,14
2022-08-12T04:18:21.288Z,13
2022-08-12T04:19:23.346Z,13
2022-08-12T04:20:25.721Z,14
2022-08-12T04:21:30.206Z,13
2022-08-12T04:22:34.881Z,14
2022-08-12T04:23:36.107Z,14
2022-08-12T04:24:41.686Z,12
2022-08-12T04:25:47.247Z,13
2022-08-12T04:26:49.110Z,13
2022-08-12T04:27:50.745Z,13
2022-08-12T04:28:52.608Z,14
2022-08-12T04:30:34.042Z,16
2022-08-12T04:31:35.544Z,15
2022-08-12T04:32:44.970Z,15
2022-08-12T04:33:47.697Z,15
2022-08-12T04:34:49.521Z,13
2022-08-12T04:35:50.756Z,13
2022-08-12T04:36:52.844Z,12
2022-08-12T04:38:01.702Z,12
2022-08-12T04:39:03.536Z,13
2022-08-12T04:40:05.590Z,15
2022-08-12T04:41:07.166Z,16
2022-08-12T04:42:09.339Z,17
2022-08-12T04:44:03.132Z,17
2022-08-12T04:45:04.186Z,15
2022-08-12T04:46:05.718Z,15
2022-08-12T04:47:06.982Z,15
2022-08-12T04:48:11.945Z,14
2022-08-12T04:49:17.325Z,14
2022-08-12T04:50:37.554Z,14
2022-08-12T04:51:39.099Z,13
2022-08-12T04:52:41.327Z,14
2022-08-12T04:53:44.488Z,14
2022-08-12T04:54:46.834Z,16
2022-08-12T04:55:48.106Z,15
2022-08-12T04:57:05.786Z,15
2022-08-12T04:58:07.179Z,15
2022-08-12T04:59:08.700Z,13
2022-08-12T05:00:09.972Z,13
2022-08-12T05:01:10.962Z,12
2022-08-12T05:02:22.967Z,12
2022-08-12T05:03:24.821Z,12
2022-08-12T05:04:25.806Z,13
2022-08-12T05:05:26.793Z,15
2022-08-12T05:06:30.388Z,16
2022-08-12T05:07:32.782Z,16
2022-08-12T05:08:34.341Z,16
2022-08-12T05:10:02.891Z,15
2022-08-12T05:11:04.447Z,15
2022-08-12T05:12:05.724Z,15
2022-08-12T05:13:07.071Z,14
2022-08-12T05:14:08.079Z,14
2022-08-12T05:15:30.338Z,13
2022-08-12T05:16:37.494Z,14
2022-08-12T05:17:42.105Z,13
2022-08-12T05:18:48.640Z,13
2022-08-12T05:19:52.605Z,12
2022-08-12T05:21:03.557Z,11
2022-08-12T05:22:05.106Z,12
2022-08-12T05:23:14.014Z,14
2022-08-12T05:24:15.281Z,14
2022-08-12T05:25:22.436Z,14
2022-08-12T05:26:23.700Z,14
2022-08-12T05:27:25.521Z,13
2022-08-12T05:28:27.630Z,13
2022-08-12T05:30:09.674Z,12
2022-08-12T05:31:10.681Z,12
2022-08-12T05:32:12.212Z,11
2022-08-12T05:33:13.471Z,12
2022-08-12T05:34:15.074Z,13
2022-08-12T05:35:16.866Z,16
2022-08-12T05:36:25.200Z,18
2022-08-12T05:37:26.739Z,19
2022-08-12T05:38:28.832Z,20
2022-08-12T05:39:30.608Z,20
2022-08-12T05:40:32.584Z,22
2022-08-12T05:41:33.882Z,25
2022-08-12T05:42:35.668Z,26
2022-08-12T05:43:37.874Z,25
2022-08-12T05:44:39.678Z,23
2022-08-12T05:45:45.438Z,20
2022-08-12T05:46:46.869Z,22
2022-08-12T05:47:57.438Z,25
2022-08-12T05:48:59.012Z,27
2022-08-12T05:50:00.658Z,30
2022-08-12T05:51:02.471Z,30
2022-08-12T05:52:04.621Z,31
2022-08-12T05:53:05.883Z,31
2022-08-12T05:54:07.945Z,28
2022-08-12T05:55:12.705Z,26
2022-08-12T05:56:14.526Z,25
2022-08-12T05:57:16.638Z,25
2022-08-12T05:58:18.151Z,25
2022-08-12T05:59:20.267Z,24
2022-08-12T06:00:21.849Z,22
2022-08-12T06:02:13.928Z,21
2022-08-12T06:03:19.341Z,20
2022-08-12T06:04:21.267Z,19
2022-08-12T06:05:23.576Z,19
2022-08-12T06:06:31.633Z,20
2022-08-12T06:08:03.598Z,28
2022-08-12T06:09:05.631Z,37
2022-08-12T06:10:06.686Z,47
2022-08-12T06:11:07.972Z,54
2022-08-12T06:12:09.536Z,55
2022-08-12T06:13:11.226Z,48
2022-08-12T06:14:17.296Z,39
2022-08-12T06:15:21.531Z,33
2022-08-12T06:16:22.771Z,30
2022-08-12T06:17:30.056Z,30
2022-08-12T06:18:32.908Z,31
2022-08-12T06:20:34.381Z,29
2022-08-12T06:21:40.421Z,25
2022-08-12T06:22:42.812Z,24
2022-08-12T06:23:44.288Z,23
2022-08-12T06:24:46.423Z,23
2022-08-12T06:25:48.310Z,22
2022-08-12T06:26:50.435Z,20
2022-08-12T06:28:11.319Z,19
2022-08-12T06:30:24.196Z,19
2022-08-12T06:31:40.583Z,18
2022-08-12T06:33:21.378Z,18
2022-08-12T06:36:49.873Z,17
2022-08-12T06:37:58.283Z,16
2022-08-12T06:38:59.295Z,16
2022-08-12T06:40:04.678Z,16
2022-08-12T06:41:06.461Z,17
2022-08-12T06:42:34.086Z,18
2022-08-12T06:44:08.260Z,17
2022-08-12T06:45:13.081Z,17
2022-08-12T06:46:18.625Z,15
2022-08-12T06:47:20.391Z,16
2022-08-12T06:48:21.393Z,17
2022-08-12T06:49:22.638Z,17
2022-08-12T06:50:24.737Z,17
2022-08-12T06:51:26.380Z,17
2022-08-12T06:52:28.514Z,16
2022-08-12T06:53:30.581Z,17
2022-08-12T06:54:32.827Z,17
2022-08-12T06:55:34.939Z,16
2022-08-12T06:58:09.968Z,16
2022-08-12T06:59:12.524Z,15
2022-08-12T07:00:13.792Z,14
2022-08-12T07:01:15.354Z,13
2022-08-12T07:02:16.987Z,13
2022-08-12T07:03:24.120Z,13
2022-08-12T07:04:43.301Z,13
2022-08-12T07:05:44.650Z,12
2022-08-12T07:06:46.640Z,12
2022-08-12T07:07:50.141Z,11
2022-08-12T07:08:52.217Z,12
2022-08-12T07:10:08.732Z,13
2022-08-12T07:11:09.741Z,13
2022-08-12T07:12:11.027Z,14
2022-08-12T07:13:13.401Z,14
2022-08-12T07:14:15.139Z,14
2022-08-12T07:15:16.710Z,16
2022-08-12T07:16:18.319Z,17
2022-08-12T07:17:19.367Z,20
2022-08-12T07:18:20.653Z,21
2022-08-12T07:19:23.139Z,21
2022-08-12T07:20:53.882Z,22
2022-08-12T07:22:03.121Z,23
2022-08-12T07:23:04.703Z,21
2022-08-12T07:24:06.880Z,22
2022-08-12T07:25:08.281Z,23
2022-08-12T07:26:13.559Z,27
2022-08-12T07:27:17.747Z,33
2022-08-12T07:28:19.149Z,30
2022-08-12T07:29:20.463Z,27
2022-08-12T07:30:22.021Z,21
2022-08-12T07:31:23.058Z,14
2022-08-12T07:32:29.671Z,14
2022-08-12T07:33:31.279Z,13
2022-08-12T07:34:33.143Z,13
2022-08-12T07:35:35.013Z,13
2022-08-12T07:36:36.342Z,14
2022-08-12T07:37:37.577Z,14
2022-08-12T07:38:39.372Z,14
2022-08-12T07:40:01.162Z,14
2022-08-12T07:41:03.522Z,13
2022-08-12T07:42:05.018Z,13
2022-08-12T07:43:06.547Z,11
2022-08-12T07:44:08.439Z,11
2022-08-12T07:45:09.526Z,10
2022-08-12T07:46:10.831Z,10
2022-08-12T07:47:13.126Z,11
2022-08-12T07:48:19.601Z,11
2022-08-12T07:49:21.165Z,11
2022-08-12T07:50:24.332Z,11
2022-08-12T07:51:26.530Z,11
2022-08-12T07:52:28.043Z,11
2022-08-12T07:53:30.115Z,11
2022-08-12T07:54:31.402Z,13
2022-08-12T07:55:32.680Z,16
2022-08-12T07:56:34.505Z,17
2022-08-12T07:57:36.364Z,19
2022-08-12T07:58:38.429Z,18
2022-08-12T07:59:39.728Z,16
2022-08-12T08:00:41.579Z,15
2022-08-12T08:01:43.911Z,15
2022-08-12T08:02:46.317Z,15
2022-08-12T08:03:49.586Z,14
2022-08-12T08:04:50.838Z,14
2022-08-12T08:05:51.889Z,13
2022-08-12T08:06:53.442Z,15
2022-08-12T08:07:55.509Z,17
2022-08-12T08:08:57.857Z,17
2022-08-12T08:10:00.944Z,17
2022-08-12T08:11:04.716Z,15
2022-08-12T08:12:06.560Z,14
2022-08-12T08:13:07.908Z,13
2022-08-12T08:14:08.929Z,12
2022-08-12T08:15:10.159Z,11
2022-08-12T08:16:11.408Z,11
2022-08-12T08:17:13.782Z,11
2022-08-12T08:18:27.908Z,10
2022-08-12T08:19:28.890Z,10
2022-08-12T08:20:30.193Z,11
2022-08-12T08:21:31.208Z,10
2022-08-12T08:22:45.726Z,12
2022-08-12T08:24:05.436Z,14
2022-08-12T08:25:37.994Z,15
2022-08-12T08:26:39.674Z,15
2022-08-12T08:27:41.195Z,15
2022-08-12T08:28:43.078Z,16
2022-08-12T08:29:44.657Z,16
2022-08-12T08:30:46.074Z,18
2022-08-12T08:31:48.479Z,17
2022-08-12T08:32:49.504Z,15
2022-08-12T08:34:52.785Z,13
2022-08-12T08:35:55.850Z,11
2022-08-12T08:37:14.665Z,10
2022-08-12T08:38:35.559Z,11
2022-08-12T08:39:37.368Z,11
2022-08-12T08:40:39.027Z,12
2022-08-12T08:42:20.905Z,11
2022-08-12T08:43:22.435Z,11
2022-08-12T08:44:23.431Z,10
2022-08-12T08:45:25.015Z,8
2022-08-12T08:46:26.333Z,9
2022-08-12T08:47:28.182Z,9
2022-08-12T08:48:29.202Z,9
2022-08-12T08:49:30.190Z,10
2022-08-12T08:50:31.190Z,10
2022-08-12T08:51:32.468Z,12
2022-08-12T08:52:41.800Z,13
2022-08-12T08:53:53.580Z,13
2022-08-12T08:54:55.159Z,13
2022-08-12T08:56:06.076Z,10
2022-08-12T08:57:07.340Z,10
2022-08-12T08:58:09.739Z,12
2022-08-12T08:59:10.870Z,13
2022-08-12T09:00:16.120Z,14
2022-08-12T09:01:19.357Z,13
2022-08-12T09:02:21.820Z,12
2022-08-12T09:05:17.887Z,11
2022-08-12T09:06:53.568Z,11
2022-08-12T09:30:14.664Z,13
2022-08-12T09:32:31.645Z,15
2022-08-12T09:35:43.784Z,15
2022-08-12T09:37:23.083Z,17
2022-08-12T09:38:32.524Z,16
2022-08-12T09:42:35.368Z,15
2022-08-12T09:44:40.476Z,15
2022-08-12T09:46:26.014Z,12
2022-08-12T09:47:33.830Z,11
2022-08-12T09:48:44.518Z,10
2022-08-12T09:50:00.644Z,12
2022-08-12T09:51:23.034Z,12
2022-08-12T09:52:32.681Z,12
2022-08-12T09:53:40.229Z,13
2022-08-12T09:54:50.194Z,20
2022-08-12T09:58:46.293Z,22
2022-08-12T10:00:32.050Z,22
2022-08-12T10:02:56.171Z,22
2022-08-12T10:04:06.070Z,15
2022-08-12T10:05:20.309Z,13
2022-08-12T10:06:54.490Z,12
2022-08-12T10:08:06.049Z,13
2022-08-12T10:09:13.707Z,13
2022-08-12T10:10:30.815Z,13
2022-08-12T10:12:13.590Z,13
2022-08-12T10:13:42.474Z,13
2022-08-12T10:14:55.557Z,13
2022-08-12T10:16:06.494Z,13
2022-08-12T10:17:19.392Z,13
2022-08-12T10:18:26.948Z,13
2022-08-12T10:19:37.600Z,13
2022-08-12T10:20:39.181Z,12
2022-08-12T10:21:40.483Z,13
2022-08-12T10:22:49.880Z,13
2022-08-12T10:23:57.440Z,13
2022-08-12T10:24:59.517Z,15
2022-08-12T10:26:39.741Z,15
2022-08-12T10:28:25.279Z,16
2022-08-12T10:30:58.492Z,16
2022-08-12T10:32:56.195Z,14
2022-08-12T10:34:26.429Z,14
2022-08-12T10:35:38.771Z,13
2022-08-12T10:36:44.620Z,14
2022-08-12T10:38:44.345Z,13
2022-08-12T10:40:15.575Z,13
2022-08-12T10:42:00.596Z,13
2022-08-12T10:43:02.930Z,13
2022-08-12T10:44:04.501Z,15
2022-08-12T10:45:18.664Z,14
2022-08-12T10:46:32.711Z,14
2022-08-12T10:48:34.715Z,14
2022-08-12T10:51:01.388Z,13
2022-08-12T10:53:47.122Z,14
2022-08-12T10:54:49.816Z,16
2022-08-12T10:55:56.788Z,18
2022-08-12T10:58:27.429Z,17
2022-08-12T11:00:45.491Z,17
2022-08-12T11:08:42.724Z,14
2022-08-12T11:10:03.235Z,12
2022-08-12T11:11:17.306Z,11
2022-08-12T11:14:01.122Z,11
2022-08-12T11:16:04.420Z,12
2022-08-12T11:17:56.349Z,11
2022-08-12T11:19:05.962Z,13
2022-08-12T11:20:15.478Z,13
2022-08-12T11:21:17.577Z,12
2022-08-12T11:22:24.619Z,12
2022-08-12T11:23:40.510Z,11
2022-08-12T11:24:55.555Z,12
2022-08-12T11:26:07.533Z,14
2022-08-12T11:27:13.803Z,15
2022-08-12T11:28:38.411Z,16
2022-08-12T11:30:32.086Z,15
2022-08-12T11:32:03.135Z,15
2022-08-12T11:34:51.000Z,14
2022-08-12T11:36:00.530Z,13
2022-08-12T11:37:05.513Z,14
2022-08-12T11:38:27.829Z,12
2022-08-12T11:40:10.320Z,12
2022-08-12T11:41:13.963Z,12
2022-08-12T11:42:33.088Z,11
2022-08-12T11:43:59.665Z,11
2022-08-12T11:45:52.777Z,10
2022-08-12T11:46:58.735Z,12
2022-08-12T11:48:00.243Z,13
2022-08-12T11:49:03.895Z,14
2022-08-12T11:50:07.134Z,14
2022-08-12T11:51:14.228Z,13
2022-08-12T11:52:57.436Z,12
2022-08-12T11:54:01.819Z,12
2022-08-12T11:55:03.668Z,12
2022-08-12T11:56:05.735Z,13
2022-08-12T12:02:22.225Z,14
2022-08-12T12:03:24.096Z,14
2022-08-12T12:04:54.200Z,14
2022-08-12T12:06:01.485Z,14
2022-08-12T12:07:12.062Z,14
2022-08-12T12:08:50.750Z,15
2022-08-12T12:09:56.270Z,14
2022-08-12T12:10:59.822Z,14
2022-08-12T12:12:02.082Z,13
2022-08-12T12:14:07.209Z,13
2022-08-12T12:15:41.594Z,14
2022-08-12T12:16:51.390Z,14
2022-08-12T12:17:56.454Z,15
2022-08-12T12:18:57.647Z,15
2022-08-12T12:19:59.076Z,13
2022-08-12T12:21:01.352Z,12
2022-08-12T12:22:31.125Z,11
2022-08-12T12:23:36.875Z,11
2022-08-12T12:24:39.508Z,13
2022-08-12T12:26:36.946Z,12
2022-08-12T12:28:06.836Z,14
2022-08-12T12:30:30.479Z,14
2022-08-12T12:32:14.393Z,12
2022-08-12T12:33:18.814Z,12
2022-08-12T12:34:31.337Z,11
2022-08-12T12:36:29.843Z,11
2022-08-12T12:38:12.957Z,11
2022-08-12T12:39:18.045Z,12
2022-08-12T12:40:32.770Z,11
2022-08-12T12:43:05.765Z,10
2022-08-12T12:44:38.579Z,10
2022-08-12T12:45:55.079Z,10
2022-08-12T12:46:58.820Z,11
2022-08-12T12:48:02.705Z,12
2022-08-12T12:49:15.610Z,13
2022-08-12T12:50:51.106Z,12
2022-08-12T12:52:21.523Z,13
2022-08-12T12:54:10.404Z,13
2022-08-12T12:55:14.219Z,12
2022-08-12T12:56:17.065Z,12
2022-08-12T12:58:01.275Z,11
2022-08-12T12:59:02.912Z,10
2022-08-12T13:00:04.966Z,10
2022-08-12T13:01:38.258Z,11
2022-08-12T13:02:54.427Z,11
2022-08-12T13:03:55.821Z,11
2022-08-12T13:05:14.287Z,10
2022-08-12T13:06:22.368Z,10
2022-08-12T13:08:01.830Z,10
2022-08-12T13:09:05.538Z,9
2022-08-12T13:10:16.578Z,9
2022-08-12T13:11:17.945Z,9
2022-08-12T13:12:21.048Z,10
2022-08-12T13:14:31.005Z,11
2022-08-12T13:15:49.660Z,11
2022-08-12T13:16:54.320Z,12
2022-08-12T13:18:05.556Z,11
2022-08-12T13:19:08.508Z,11
2022-08-12T13:20:11.075Z,11
2022-08-12T13:21:45.516Z,10
2022-08-12T13:22:47.102Z,11
2022-08-12T13:23:54.133Z,12
2022-08-12T13:24:58.155Z,12
2022-08-12T13:26:01.833Z,13
2022-08-12T13:27:03.466Z,14
2022-08-12T13:28:08.836Z,13
2022-08-12T13:29:12.945Z,13
2022-08-12T13:30:20.062Z,12
2022-08-12T13:31:27.940Z,12
2022-08-12T13:32:32.131Z,12
2022-08-12T13:34:37.201Z,12
2022-08-12T13:36:15.474Z,12
2022-08-12T13:37:21.420Z,11
2022-08-12T13:38:55.621Z,11
2022-08-12T13:39:57.210Z,11
2022-08-12T13:40:59.658Z,10
2022-08-12T13:42:04.171Z,11
2022-08-12T13:43:42.539Z,11
2022-08-12T13:44:47.145Z,11
2022-08-12T13:45:54.855Z,11
2022-08-12T13:47:18.727Z,11
2022-08-12T13:48:29.296Z,10
2022-08-12T13:49:56.622Z,10
2022-08-12T13:51:04.948Z,11
2022-08-12T13:52:08.379Z,11
2022-08-12T13:54:04.911Z,11
2022-08-12T13:55:15.764Z,10
2022-08-12T13:56:22.767Z,9
2022-08-12T13:57:25.821Z,10
2022-08-12T13:58:30.065Z,11
2022-08-12T14:00:00.607Z,13
2022-08-12T14:01:09.802Z,14
2022-08-12T14:02:14.486Z,13
2022-08-12T14:03:52.275Z,11
2022-08-12T14:04:57.402Z,12
2022-08-12T14:05:59.788Z,11
2022-08-12T14:07:07.623Z,11
2022-08-12T14:08:34.373Z,11
2022-08-12T14:09:45.708Z,11
2022-08-12T14:10:51.952Z,12
2022-08-12T14:12:01.322Z,14
2022-08-12T14:13:17.010Z,15
2022-08-12T14:15:17.712Z,14
2022-08-12T14:16:52.848Z,13
2022-08-12T14:17:57.184Z,13
2022-08-12T14:19:00.243Z,12
2022-08-12T14:20:27.239Z,11
2022-08-12T14:22:05.006Z,11
2022-08-12T14:24:10.106Z,11
2022-08-12T14:25:17.270Z,12
2022-08-12T14:26:22.156Z,12
2022-08-12T14:28:07.261Z,12
2022-08-12T14:30:23.950Z,11
2022-08-12T14:31:32.568Z,10
2022-08-12T14:32:34.376Z,10
2022-08-12T14:33:45.186Z,10
2022-08-12T14:34:46.733Z,10
2022-08-12T14:35:49.004Z,11
2022-08-12T14:36:52.035Z,11
2022-08-12T14:37:59.466Z,11
2022-08-12T14:39:07.259Z,12
2022-08-12T14:40:09.523Z,12
2022-08-12T14:41:11.077Z,12
2022-08-12T14:42:18.955Z,13
2022-08-12T14:44:04.862Z,13
2022-08-12T14:46:09.661Z,14
2022-08-12T14:47:10.927Z,16
2022-08-12T14:48:13.408Z,15
2022-08-12T14:53:50.592Z,15
2022-08-12T14:59:24.360Z,13
2022-08-12T15:00:27.408Z,11
2022-08-12T15:01:31.382Z,10
2022-08-12T15:02:35.974Z,10
2022-08-12T15:03:58.782Z,10
2022-08-12T15:05:00.337Z,10
2022-08-12T15:06:53.308Z,11
2022-08-12T15:08:07.822Z,10
2022-08-12T15:09:29.808Z,10
2022-08-12T15:10:34.673Z,9
2022-08-12T15:12:04.495Z,9
2022-08-12T15:13:16.747Z,10
2022-08-12T15:14:22.517Z,10
2022-08-12T15:15:24.745Z,10
2022-08-12T15:16:27.375Z,10
2022-08-12T15:17:39.123Z,10
2022-08-12T15:18:59.648Z,10
2022-08-12T15:22:54.375Z,10
2022-08-12T15:23:58.148Z,9
2022-08-12T15:25:02.268Z,9
2022-08-12T15:26:08.818Z,9
2022-08-12T15:28:22.428Z,9
2022-08-12T15:29:25.831Z,9
2022-08-12T15:30:31.014Z,10
2022-08-12T15:32:09.381Z,9
2022-08-12T15:33:46.827Z,9
2022-08-12T15:34:54.437Z,9
2022-08-12T15:36:02.734Z,9
2022-08-12T15:37:18.244Z,9
2022-08-12T15:39:18.452Z,10
2022-08-12T15:40:31.379Z,11
2022-08-12T15:41:55.742Z,10
2022-08-12T15:43:09.701Z,10
2022-08-12T15:44:43.527Z,9
2022-08-12T15:45:48.014Z,10
2022-08-12T15:46:49.174Z,11
2022-08-12T15:48:16.580Z,11
2022-08-12T15:49:23.439Z,10
2022-08-12T15:50:27.429Z,9
2022-08-12T15:52:05.489Z,9
2022-08-12T15:53:15.344Z,9
2022-08-12T15:54:45.525Z,9
2022-08-12T15:55:51.159Z,9
2022-08-12T15:57:04.294Z,9
2022-08-12T15:58:12.056Z,9
2022-08-12T15:59:20.626Z,9
2022-08-12T16:01:36.448Z,10
2022-08-12T16:02:37.885Z,9
2022-08-12T16:04:01.169Z,10
2022-08-12T16:06:59.154Z,10
2022-08-12T16:08:28.133Z,9
2022-08-12T16:10:09.143Z,9
2022-08-12T16:11:19.183Z,9
2022-08-12T16:12:26.027Z,10
2022-08-12T16:13:35.542Z,11
2022-08-12T16:14:38.212Z,11
2022-08-12T16:16:04.140Z,12
2022-08-12T16:18:20.991Z,12
2022-08-12T16:20:06.036Z,13
2022-08-12T16:21:09.450Z,12
2022-08-12T16:23:51.586Z,12
2022-08-12T16:25:02.373Z,11
2022-08-12T16:26:32.446Z,11
2022-08-12T16:27:39.156Z,10
2022-08-12T16:28:41.367Z,11
2022-08-12T16:29:54.591Z,11
2022-08-12T16:30:55.639Z,10
2022-08-12T16:32:00.004Z,11
2022-08-12T16:33:05.791Z,10
2022-08-12T16:34:57.503Z,11
2022-08-12T16:36:02.170Z,11
2022-08-12T16:37:07.842Z,12
2022-08-12T16:38:29.475Z,13
2022-08-12T16:40:04.705Z,13
2022-08-12T16:41:08.813Z,13
2022-08-12T16:42:10.525Z,11
2022-08-12T16:43:14.274Z,11
2022-08-12T16:46:34.235Z,9
2022-08-12T16:48:00.872Z,9
2022-08-12T16:49:15.276Z,9
2022-08-12T16:50:17.046Z,11
2022-08-12T16:51:18.690Z,11
2022-08-12T16:52:21.474Z,11
2022-08-12T16:53:45.852Z,11
2022-08-12T16:54:46.978Z,9
2022-08-12T16:55:52.378Z,10
2022-08-12T16:56:59.171Z,10
2022-08-12T16:58:31.202Z,11
2022-08-12T16:59:55.374Z,11
2022-08-12T17:01:06.301Z,10
2022-08-12T17:02:33.400Z,11
2022-08-12T17:03:37.047Z,12
2022-08-12T17:04:54.136Z,12
2022-08-12T17:05:56.479Z,12
2022-08-12T17:06:58.174Z,11
2022-08-12T17:07:59.964Z,11
2022-08-12T17:09:01.224Z,12
2022-08-12T17:10:03.663Z,12
2022-08-12T17:11:08.863Z,12
2022-08-12T17:12:21.161Z,11
2022-08-12T17:13:25.911Z,10
2022-08-12T17:14:32.422Z,11
2022-08-12T17:16:18.261Z,12
2022-08-12T17:17:40.970Z,13
2022-08-12T17:19:08.886Z,13
2022-08-12T17:20:46.529Z,12
2022-08-12T17:22:02.929Z,12
2022-08-12T17:23:14.104Z,12
2022-08-12T17:24:16.770Z,12
2022-08-12T17:25:18.302Z,11
2022-08-12T17:26:30.757Z,12
2022-08-12T17:27:37.507Z,12
2022-08-12T17:28:42.464Z,12
2022-08-12T17:30:06.946Z,13
2022-08-12T17:32:05.558Z,13
2022-08-12T17:33:08.096Z,14
2022-08-12T17:34:18.786Z,14
2022-08-12T17:35:43.233Z,14
2022-08-12T17:37:05.227Z,14
2022-08-12T17:38:17.766Z,13
2022-08-12T17:39:19.492Z,13
2022-08-12T17:40:37.570Z,14
2022-08-12T17:41:57.983Z,13
2022-08-12T17:43:00.722Z,12
2022-08-12T17:44:56.540Z,15
2022-08-12T17:46:02.386Z,15
2022-08-12T17:47:13.866Z,16
2022-08-12T17:48:18.474Z,17
2022-08-12T17:50:06.210Z,17
2022-08-12T17:51:16.343Z,17
2022-08-12T17:52:18.438Z,18
2022-08-12T17:53:22.892Z,18
2022-08-12T17:54:23.924Z,16
2022-08-12T17:55:48.900Z,15
2022-08-12T17:56:52.543Z,13
2022-08-12T17:58:00.690Z,12
2022-08-12T17:59:02.216Z,12
2022-08-12T18:00:04.531Z,13
2022-08-12T18:01:12.751Z,13
2022-08-12T18:02:14.399Z,13
2022-08-12T18:04:21.166Z,14